sensor_id;sensor_type;location;lat;lon;timestamp;temperature;humidity
21592;DHT22;10958;50.892;3.992;2023-05-02T00:00:42;11.30;99.90
21592;DHT22;10958;50.892;3.992;2023-05-02T00:03:10;11.20;99.90
21592;DHT22;10958;50.892;3.992;2023-05-02T00:05:36;11.10;99.90
21592;DHT22;10958;50.892;3.992;2023-05-02T00:09:17;11.10;99.90
21592;DHT22;10958;50.892;3.992;2023-05-02T00:11:43;11.10;99.90
21592;DHT22;10958;50.892;3.992;2023-05-02T00:14:09;11.10;99.90
21592;DHT22;10958;50.892;3.992;2023-05-02T00:16:37;11.10;99.90
21592;DHT22;10958;50.892;3.992;2023-05-02T00:19:06;11.10;99.90
21592;DHT22;10958;50.892;3.992;2023-05-02T00:21:32;11.10;99.90
21592;DHT22;10958;50.892;3.992;2023-05-02T00:24:00;11.10;99.90
21592;DHT22;10958;50.892;3.992;2023-05-02T00:26:26;11.10;99.90
21592;DHT22;10958;50.892;3.992;2023-05-02T00:28:53;11.20;99.90
21592;DHT22;10958;50.892;3.992;2023-05-02T00:31:19;11.20;99.90
21592;DHT22;10958;50.892;3.992;2023-05-02T00:33:45;11.20;99.90
21592;DHT22;10958;50.892;3.992;2023-05-02T00:36:15;11.20;99.90
21592;DHT22;10958;50.892;3.992;2023-05-02T00:38:41;11.20;99.90
21592;DHT22;10958;50.892;3.992;2023-05-02T00:41:21;11.20;99.90
21592;DHT22;10958;50.892;3.992;2023-05-02T00:43:47;11.10;99.90
21592;DHT22;10958;50.892;3.992;2023-05-02T00:46:16;11.10;99.90
21592;DHT22;10958;50.892;3.992;2023-05-02T00:49:09;11.20;99.90
21592;DHT22;10958;50.892;3.992;2023-05-02T00:51:42;11.20;99.90
21592;DHT22;10958;50.892;3.992;2023-05-02T00:54:17;11.30;99.90
21592;DHT22;10958;50.892;3.992;2023-05-02T00:59:39;11.40;99.90
21592;DHT22;10958;50.892;3.992;2023-05-02T01:02:42;11.40;99.90
21592;DHT22;10958;50.892;3.992;2023-05-02T01:05:14;11.50;99.90
21592;DHT22;10958;50.892;3.992;2023-05-02T01:10:47;11.50;99.90
21592;DHT22;10958;50.892;3.992;2023-05-02T01:13:21;11.80;99.90
21592;DHT22;10958;50.892;3.992;2023-05-02T01:15:50;11.90;99.90
21592;DHT22;10958;50.892;3.992;2023-05-02T01:18:21;11.80;99.90
21592;DHT22;10958;50.892;3.992;2023-05-02T01:20:54;11.90;99.90
21592;DHT22;10958;50.892;3.992;2023-05-02T01:23:59;11.90;99.90
21592;DHT22;10958;50.892;3.992;2023-05-02T01:26:42;11.90;99.90
21592;DHT22;10958;50.892;3.992;2023-05-02T01:29:13;11.70;99.90
21592;DHT22;10958;50.892;3.992;2023-05-02T01:31:45;11.70;99.90
21592;DHT22;10958;50.892;3.992;2023-05-02T01:34:12;11.70;99.90
21592;DHT22;10958;50.892;3.992;2023-05-02T01:36:46;11.60;99.90
21592;DHT22;10958;50.892;3.992;2023-05-02T01:39:21;11.60;99.90
21592;DHT22;10958;50.892;3.992;2023-05-02T01:41:50;11.60;99.90
21592;DHT22;10958;50.892;3.992;2023-05-02T01:44:19;11.70;99.90
21592;DHT22;10958;50.892;3.992;2023-05-02T01:46:46;11.60;99.90
21592;DHT22;10958;50.892;3.992;2023-05-02T01:49:12;11.60;99.90
21592;DHT22;10958;50.892;3.992;2023-05-02T01:52:01;11.70;99.90
21592;DHT22;10958;50.892;3.992;2023-05-02T01:54:31;11.80;99.90
21592;DHT22;10958;50.892;3.992;2023-05-02T01:56:59;11.90;99.90
21592;DHT22;10958;50.892;3.992;2023-05-02T01:59:27;12.00;99.90
21592;DHT22;10958;50.892;3.992;2023-05-02T02:01:55;11.80;99.90
21592;DHT22;10958;50.892;3.992;2023-05-02T02:04:22;11.80;99.90
21592;DHT22;10958;50.892;3.992;2023-05-02T02:06:54;11.80;99.90
21592;DHT22;10958;50.892;3.992;2023-05-02T02:09:22;11.90;99.90
21592;DHT22;10958;50.892;3.992;2023-05-02T02:12:07;11.90;99.90
21592;DHT22;10958;50.892;3.992;2023-05-02T02:14:41;12.00;99.90
21592;DHT22;10958;50.892;3.992;2023-05-02T02:17:12;12.20;99.90
21592;DHT22;10958;50.892;3.992;2023-05-02T02:19:41;12.30;99.90
21592;DHT22;10958;50.892;3.992;2023-05-02T02:22:07;12.60;99.90
21592;DHT22;10958;50.892;3.992;2023-05-02T02:24:38;12.70;99.90
21592;DHT22;10958;50.892;3.992;2023-05-02T02:27:07;12.80;99.90
21592;DHT22;10958;50.892;3.992;2023-05-02T02:29:33;12.90;99.90
21592;DHT22;10958;50.892;3.992;2023-05-02T02:32:00;12.80;99.90
21592;DHT22;10958;50.892;3.992;2023-05-02T02:34:26;12.70;99.90
21592;DHT22;10958;50.892;3.992;2023-05-02T02:37:11;12.60;99.90
21592;DHT22;10958;50.892;3.992;2023-05-02T02:40:03;12.40;99.90
21592;DHT22;10958;50.892;3.992;2023-05-02T02:42:49;12.10;99.90
21592;DHT22;10958;50.892;3.992;2023-05-02T02:48:18;12.10;99.90
21592;DHT22;10958;50.892;3.992;2023-05-02T02:51:08;12.30;99.90
21592;DHT22;10958;50.892;3.992;2023-05-02T02:56:41;12.30;99.90
21592;DHT22;10958;50.892;3.992;2023-05-02T02:59:27;12.20;99.90
21592;DHT22;10958;50.892;3.992;2023-05-02T03:04:30;11.90;99.90
21592;DHT22;10958;50.892;3.992;2023-05-02T03:06:57;11.80;99.90
21592;DHT22;10958;50.892;3.992;2023-05-02T03:09:24;11.90;99.90
21592;DHT22;10958;50.892;3.992;2023-05-02T03:11:54;11.80;99.90
21592;DHT22;10958;50.892;3.992;2023-05-02T03:14:22;11.80;99.90
21592;DHT22;10958;50.892;3.992;2023-05-02T03:16:48;11.90;99.90
21592;DHT22;10958;50.892;3.992;2023-05-02T03:19:19;11.80;99.90
21592;DHT22;10958;50.892;3.992;2023-05-02T03:21:44;11.80;99.90
21592;DHT22;10958;50.892;3.992;2023-05-02T03:24:10;11.80;99.90
21592;DHT22;10958;50.892;3.992;2023-05-02T03:26:36;11.80;99.90
21592;DHT22;10958;50.892;3.992;2023-05-02T03:29:02;11.80;99.90
21592;DHT22;10958;50.892;3.992;2023-05-02T03:31:30;11.70;99.90
21592;DHT22;10958;50.892;3.992;2023-05-02T03:33:56;11.60;99.90
21592;DHT22;10958;50.892;3.992;2023-05-02T03:36:22;11.70;99.90
21592;DHT22;10958;50.892;3.992;2023-05-02T03:38:50;11.70;99.90
21592;DHT22;10958;50.892;3.992;2023-05-02T03:41:17;11.70;99.90
21592;DHT22;10958;50.892;3.992;2023-05-02T03:43:43;11.80;99.90
21592;DHT22;10958;50.892;3.992;2023-05-02T03:46:08;11.70;99.90
21592;DHT22;10958;50.892;3.992;2023-05-02T03:48:36;11.70;99.90
21592;DHT22;10958;50.892;3.992;2023-05-02T03:51:04;11.80;99.90
21592;DHT22;10958;50.892;3.992;2023-05-02T03:53:34;11.80;99.90
21592;DHT22;10958;50.892;3.992;2023-05-02T03:56:00;11.90;99.90
21592;DHT22;10958;50.892;3.992;2023-05-02T03:58:26;11.90;99.90
21592;DHT22;10958;50.892;3.992;2023-05-02T04:00:52;11.90;99.90
21592;DHT22;10958;50.892;3.992;2023-05-02T04:03:18;12.10;99.90
21592;DHT22;10958;50.892;3.992;2023-05-02T04:05:44;12.00;99.90
21592;DHT22;10958;50.892;3.992;2023-05-02T04:08:10;11.90;99.90
21592;DHT22;10958;50.892;3.992;2023-05-02T04:10:36;11.70;99.90
21592;DHT22;10958;50.892;3.992;2023-05-02T04:13:02;11.50;99.90
21592;DHT22;10958;50.892;3.992;2023-05-02T04:15:29;11.30;99.90
21592;DHT22;10958;50.892;3.992;2023-05-02T04:17:57;11.40;99.90
21592;DHT22;10958;50.892;3.992;2023-05-02T04:20:22;11.50;99.90
21592;DHT22;10958;50.892;3.992;2023-05-02T04:22:48;11.60;99.90
21592;DHT22;10958;50.892;3.992;2023-05-02T04:25:15;11.70;99.90
21592;DHT22;10958;50.892;3.992;2023-05-02T04:27:40;11.70;99.90
21592;DHT22;10958;50.892;3.992;2023-05-02T04:30:07;11.60;99.90
21592;DHT22;10958;50.892;3.992;2023-05-02T04:32:33;11.60;99.90
21592;DHT22;10958;50.892;3.992;2023-05-02T04:34:59;11.50;99.90
21592;DHT22;10958;50.892;3.992;2023-05-02T04:37:25;11.40;99.90
21592;DHT22;10958;50.892;3.992;2023-05-02T04:39:50;11.40;99.90
21592;DHT22;10958;50.892;3.992;2023-05-02T04:42:16;11.40;99.90
21592;DHT22;10958;50.892;3.992;2023-05-02T04:44:41;11.30;99.90
21592;DHT22;10958;50.892;3.992;2023-05-02T04:47:07;11.30;99.90
21592;DHT22;10958;50.892;3.992;2023-05-02T04:49:33;11.20;99.90
21592;DHT22;10958;50.892;3.992;2023-05-02T04:51:58;11.20;99.90
21592;DHT22;10958;50.892;3.992;2023-05-02T04:54:24;11.10;99.90
21592;DHT22;10958;50.892;3.992;2023-05-02T04:56:50;11.20;99.90
21592;DHT22;10958;50.892;3.992;2023-05-02T04:59:16;11.20;99.90
21592;DHT22;10958;50.892;3.992;2023-05-02T05:01:42;11.20;99.90
21592;DHT22;10958;50.892;3.992;2023-05-02T05:04:08;11.30;99.90
21592;DHT22;10958;50.892;3.992;2023-05-02T05:06:34;11.30;99.90
21592;DHT22;10958;50.892;3.992;2023-05-02T05:09:00;11.50;99.90
21592;DHT22;10958;50.892;3.992;2023-05-02T05:11:29;11.60;99.90
21592;DHT22;10958;50.892;3.992;2023-05-02T05:13:56;11.70;99.90
21592;DHT22;10958;50.892;3.992;2023-05-02T05:16:25;11.70;99.90
21592;DHT22;10958;50.892;3.992;2023-05-02T05:18:51;11.70;99.90
21592;DHT22;10958;50.892;3.992;2023-05-02T05:21:18;11.80;99.90
21592;DHT22;10958;50.892;3.992;2023-05-02T05:23:44;11.70;99.90
21592;DHT22;10958;50.892;3.992;2023-05-02T05:29:48;11.70;99.90
21592;DHT22;10958;50.892;3.992;2023-05-02T05:36:17;11.70;99.90
21592;DHT22;10958;50.892;3.992;2023-05-02T05:44:49;12.00;99.90
21592;DHT22;10958;50.892;3.992;2023-05-02T05:47:21;12.10;99.90
21592;DHT22;10958;50.892;3.992;2023-05-02T05:50:08;12.20;99.90
21592;DHT22;10958;50.892;3.992;2023-05-02T05:53:04;12.00;99.90
21592;DHT22;10958;50.892;3.992;2023-05-02T05:55:33;11.90;99.90
21592;DHT22;10958;50.892;3.992;2023-05-02T05:58:20;11.80;99.90
21592;DHT22;10958;50.892;3.992;2023-05-02T06:04:57;11.80;99.90
21592;DHT22;10958;50.892;3.992;2023-05-02T06:14:49;11.80;99.90
21592;DHT22;10958;50.892;3.992;2023-05-02T06:21:50;11.80;99.90
21592;DHT22;10958;50.892;3.992;2023-05-02T06:28:17;11.70;99.90
21592;DHT22;10958;50.892;3.992;2023-05-02T06:31:05;11.70;99.90
21592;DHT22;10958;50.892;3.992;2023-05-02T06:47:01;12.00;99.90
21592;DHT22;10958;50.892;3.992;2023-05-02T06:49:55;12.00;99.90
21592;DHT22;10958;50.892;3.992;2023-05-02T06:52:48;12.10;99.90
21592;DHT22;10958;50.892;3.992;2023-05-02T06:58:51;12.60;99.90
21592;DHT22;10958;50.892;3.992;2023-05-02T07:01:54;13.00;99.90
21592;DHT22;10958;50.892;3.992;2023-05-02T07:04:45;13.40;99.90
21592;DHT22;10958;50.892;3.992;2023-05-02T07:07:33;13.30;99.90
21592;DHT22;10958;50.892;3.992;2023-05-02T07:10:15;13.20;99.90
21592;DHT22;10958;50.892;3.992;2023-05-02T07:13:33;13.30;99.90
21592;DHT22;10958;50.892;3.992;2023-05-02T07:19:38;13.70;99.90
21592;DHT22;10958;50.892;3.992;2023-05-02T07:22:54;14.00;99.90
21592;DHT22;10958;50.892;3.992;2023-05-02T07:25:32;14.10;99.90
21592;DHT22;10958;50.892;3.992;2023-05-02T07:28:41;14.90;99.90
21592;DHT22;10958;50.892;3.992;2023-05-02T07:34:57;16.20;99.90
21592;DHT22;10958;50.892;3.992;2023-05-02T07:37:42;16.90;99.90
21592;DHT22;10958;50.892;3.992;2023-05-02T07:40:20;17.10;99.90
21592;DHT22;10958;50.892;3.992;2023-05-02T07:43:00;16.90;99.90
21592;DHT22;10958;50.892;3.992;2023-05-02T07:46:03;17.00;99.90
21592;DHT22;10958;50.892;3.992;2023-05-02T07:49:01;17.40;99.90
21592;DHT22;10958;50.892;3.992;2023-05-02T07:51:54;18.20;99.90
21592;DHT22;10958;50.892;3.992;2023-05-02T08:01:26;17.30;99.90
21592;DHT22;10958;50.892;3.992;2023-05-02T08:28:47;16.60;99.90
21592;DHT22;10958;50.892;3.992;2023-05-02T08:34:59;17.80;99.90
21592;DHT22;10958;50.892;3.992;2023-05-02T08:44:28;18.50;99.90
21592;DHT22;10958;50.892;3.992;2023-05-02T08:50:11;20.00;99.90
21592;DHT22;10958;50.892;3.992;2023-05-02T08:56:26;20.30;99.90
21592;DHT22;10958;50.892;3.992;2023-05-02T08:58:54;20.50;99.90
21592;DHT22;10958;50.892;3.992;2023-05-02T09:01:27;20.80;99.90
21592;DHT22;10958;50.892;3.992;2023-05-02T09:04:29;21.30;99.90
21592;DHT22;10958;50.892;3.992;2023-05-02T09:24:27;21.90;99.90
21592;DHT22;10958;50.892;3.992;2023-05-02T09:40:55;17.00;99.90
21592;DHT22;10958;50.892;3.992;2023-05-02T09:50:45;17.50;99.90
21592;DHT22;10958;50.892;3.992;2023-05-02T09:53:53;17.30;99.90
21592;DHT22;10958;50.892;3.992;2023-05-02T09:59:58;18.10;99.90
21592;DHT22;10958;50.892;3.992;2023-05-02T10:05:19;17.70;99.90
21592;DHT22;10958;50.892;3.992;2023-05-02T10:07:47;17.60;99.90
21592;DHT22;10958;50.892;3.992;2023-05-02T10:10:16;17.40;99.90
21592;DHT22;10958;50.892;3.992;2023-05-02T10:12:42;17.60;99.90
21592;DHT22;10958;50.892;3.992;2023-05-02T10:15:09;17.70;99.90
21592;DHT22;10958;50.892;3.992;2023-05-02T10:17:43;17.90;99.90
21592;DHT22;10958;50.892;3.992;2023-05-02T10:20:21;18.00;99.90
21592;DHT22;10958;50.892;3.992;2023-05-02T10:22:48;18.40;99.90
21592;DHT22;10958;50.892;3.992;2023-05-02T10:25:15;18.70;99.90
21592;DHT22;10958;50.892;3.992;2023-05-02T10:27:41;18.80;99.90
21592;DHT22;10958;50.892;3.992;2023-05-02T10:30:07;18.40;99.90
21592;DHT22;10958;50.892;3.992;2023-05-02T10:32:34;18.10;99.90
21592;DHT22;10958;50.892;3.992;2023-05-02T10:35:07;17.90;99.90
21592;DHT22;10958;50.892;3.992;2023-05-02T10:37:35;18.00;99.90
21592;DHT22;10958;50.892;3.992;2023-05-02T10:40:09;18.00;99.90
21592;DHT22;10958;50.892;3.992;2023-05-02T10:42:38;18.00;99.90
21592;DHT22;10958;50.892;3.992;2023-05-02T10:45:11;18.40;99.90
21592;DHT22;10958;50.892;3.992;2023-05-02T10:47:40;18.40;99.90
21592;DHT22;10958;50.892;3.992;2023-05-02T10:50:07;18.40;99.90
21592;DHT22;10958;50.892;3.992;2023-05-02T10:52:37;18.30;99.90
21592;DHT22;10958;50.892;3.992;2023-05-02T10:55:20;18.30;99.90
21592;DHT22;10958;50.892;3.992;2023-05-02T11:00:32;17.70;99.90
21592;DHT22;10958;50.892;3.992;2023-05-02T11:03:01;18.00;99.90
21592;DHT22;10958;50.892;3.992;2023-05-02T11:05:27;18.00;99.90
21592;DHT22;10958;50.892;3.992;2023-05-02T11:10:41;18.10;99.90
21592;DHT22;10958;50.892;3.992;2023-05-02T11:13:08;18.10;99.90
21592;DHT22;10958;50.892;3.992;2023-05-02T11:18:09;18.00;99.90
21592;DHT22;10958;50.892;3.992;2023-05-02T11:20:42;17.30;99.90
21592;DHT22;10958;50.892;3.992;2023-05-02T11:40:33;17.70;99.90
21592;DHT22;10958;50.892;3.992;2023-05-02T11:42:59;17.60;99.90
21592;DHT22;10958;50.892;3.992;2023-05-02T11:45:35;17.90;99.90
21592;DHT22;10958;50.892;3.992;2023-05-02T11:48:05;17.70;99.90
21592;DHT22;10958;50.892;3.992;2023-05-02T11:50:51;17.20;99.90
21592;DHT22;10958;50.892;3.992;2023-05-02T11:53:38;17.00;99.90
21592;DHT22;10958;50.892;3.992;2023-05-02T11:56:07;16.90;99.90
21592;DHT22;10958;50.892;3.992;2023-05-02T11:58:45;17.00;99.90
21592;DHT22;10958;50.892;3.992;2023-05-02T12:01:22;17.10;99.90
21592;DHT22;10958;50.892;3.992;2023-05-02T12:03:49;17.10;99.90
21592;DHT22;10958;50.892;3.992;2023-05-02T12:08:27;17.40;99.90
21592;DHT22;10958;50.892;3.992;2023-05-02T12:10:57;17.70;99.90
21592;DHT22;10958;50.892;3.992;2023-05-02T12:13:23;17.70;99.90
21592;DHT22;10958;50.892;3.992;2023-05-02T12:15:55;17.60;99.90
21592;DHT22;10958;50.892;3.992;2023-05-02T12:18:28;17.60;99.90
21592;DHT22;10958;50.892;3.992;2023-05-02T12:20:57;17.60;99.90
21592;DHT22;10958;50.892;3.992;2023-05-02T12:23:26;17.40;99.90
21592;DHT22;10958;50.892;3.992;2023-05-02T12:26:24;17.30;99.90
21592;DHT22;10958;50.892;3.992;2023-05-02T12:28:57;17.30;99.90
21592;DHT22;10958;50.892;3.992;2023-05-02T12:31:39;17.50;99.90
21592;DHT22;10958;50.892;3.992;2023-05-02T12:34:44;17.40;99.90
21592;DHT22;10958;50.892;3.992;2023-05-02T12:37:40;17.40;99.90
21592;DHT22;10958;50.892;3.992;2023-05-02T12:40:45;17.50;99.90
21592;DHT22;10958;50.892;3.992;2023-05-02T12:52:51;18.10;99.90
21592;DHT22;10958;50.892;3.992;2023-05-02T12:55:28;18.10;99.90
21592;DHT22;10958;50.892;3.992;2023-05-02T12:58:25;18.30;99.90
21592;DHT22;10958;50.892;3.992;2023-05-02T13:03:51;18.10;99.90
21592;DHT22;10958;50.892;3.992;2023-05-02T13:06:27;18.00;99.90
21592;DHT22;10958;50.892;3.992;2023-05-02T13:08:53;17.90;99.90
21592;DHT22;10958;50.892;3.992;2023-05-02T13:11:23;17.80;99.90
21592;DHT22;10958;50.892;3.992;2023-05-02T13:14:15;18.00;99.90
21592;DHT22;10958;50.892;3.992;2023-05-02T13:19:35;17.90;99.90
21592;DHT22;10958;50.892;3.992;2023-05-02T13:22:16;17.60;99.90
21592;DHT22;10958;50.892;3.992;2023-05-02T13:24:51;17.70;99.90
21592;DHT22;10958;50.892;3.992;2023-05-02T13:27:22;17.80;99.90
21592;DHT22;10958;50.892;3.992;2023-05-02T13:29:52;17.90;99.90
21592;DHT22;10958;50.892;3.992;2023-05-02T13:32:54;17.80;99.90
21592;DHT22;10958;50.892;3.992;2023-05-02T13:35:16;18.20;99.90
21592;DHT22;10958;50.892;3.992;2023-05-02T13:37:42;18.00;99.90
21592;DHT22;10958;50.892;3.992;2023-05-02T13:40:32;17.60;99.90
21592;DHT22;10958;50.892;3.992;2023-05-02T13:43:23;17.50;99.90
21592;DHT22;10958;50.892;3.992;2023-05-02T13:45:49;17.50;99.90
21592;DHT22;10958;50.892;3.992;2023-05-02T13:55:22;17.70;99.90
21592;DHT22;10958;50.892;3.992;2023-05-02T13:57:47;17.50;99.90
21592;DHT22;10958;50.892;3.992;2023-05-02T14:00:25;17.30;99.90
21592;DHT22;10958;50.892;3.992;2023-05-02T14:02:53;17.20;99.90
21592;DHT22;10958;50.892;3.992;2023-05-02T14:05:34;17.20;99.90
21592;DHT22;10958;50.892;3.992;2023-05-02T14:08:12;17.00;99.90
21592;DHT22;10958;50.892;3.992;2023-05-02T14:10:56;17.00;99.90
21592;DHT22;10958;50.892;3.992;2023-05-02T14:13:55;16.90;99.90
21592;DHT22;10958;50.892;3.992;2023-05-02T14:16:22;16.90;99.90
21592;DHT22;10958;50.892;3.992;2023-05-02T14:19:02;16.90;99.90
21592;DHT22;10958;50.892;3.992;2023-05-02T14:21:29;16.80;99.90
21592;DHT22;10958;50.892;3.992;2023-05-02T14:23:56;16.90;99.90
21592;DHT22;10958;50.892;3.992;2023-05-02T14:26:24;16.90;99.90
21592;DHT22;10958;50.892;3.992;2023-05-02T14:28:50;16.80;99.90
21592;DHT22;10958;50.892;3.992;2023-05-02T14:34:25;16.70;99.90
21592;DHT22;10958;50.892;3.992;2023-05-02T14:36:51;16.50;99.90
21592;DHT22;10958;50.892;3.992;2023-05-02T14:39:17;16.40;99.90
21592;DHT22;10958;50.892;3.992;2023-05-02T14:42:27;16.60;99.90
21592;DHT22;10958;50.892;3.992;2023-05-02T14:48:24;16.40;99.90
21592;DHT22;10958;50.892;3.992;2023-05-02T14:51:11;16.60;99.90
21592;DHT22;10958;50.892;3.992;2023-05-02T14:53:37;16.70;99.90
21592;DHT22;10958;50.892;3.992;2023-05-02T14:59:56;16.60;99.90
21592;DHT22;10958;50.892;3.992;2023-05-02T15:02:54;16.70;99.90
21592;DHT22;10958;50.892;3.992;2023-05-02T15:06:02;16.60;99.90
21592;DHT22;10958;50.892;3.992;2023-05-02T15:08:29;16.70;99.90
21592;DHT22;10958;50.892;3.992;2023-05-02T15:11:33;16.60;99.90
21592;DHT22;10958;50.892;3.992;2023-05-02T15:14:31;16.60;99.90
21592;DHT22;10958;50.892;3.992;2023-05-02T15:17:32;16.50;99.90
21592;DHT22;10958;50.892;3.992;2023-05-02T15:20:07;16.50;99.90
21592;DHT22;10958;50.892;3.992;2023-05-02T15:26:23;16.50;99.90
21592;DHT22;10958;50.892;3.992;2023-05-02T15:34:23;16.60;99.90
21592;DHT22;10958;50.892;3.992;2023-05-02T15:36:49;16.60;99.90
21592;DHT22;10958;50.892;3.992;2023-05-02T15:39:16;16.50;99.90
21592;DHT22;10958;50.892;3.992;2023-05-02T15:41:43;16.60;99.90
21592;DHT22;10958;50.892;3.992;2023-05-02T15:44:12;16.60;99.90
21592;DHT22;10958;50.892;3.992;2023-05-02T15:46:38;16.70;99.90
21592;DHT22;10958;50.892;3.992;2023-05-02T15:49:05;16.70;99.90
21592;DHT22;10958;50.892;3.992;2023-05-02T15:51:31;16.80;99.90
21592;DHT22;10958;50.892;3.992;2023-05-02T15:53:56;16.80;99.90
21592;DHT22;10958;50.892;3.992;2023-05-02T15:56:22;16.80;99.90
21592;DHT22;10958;50.892;3.992;2023-05-02T15:58:48;16.80;99.90
21592;DHT22;10958;50.892;3.992;2023-05-02T16:01:14;16.70;99.90
21592;DHT22;10958;50.892;3.992;2023-05-02T16:03:40;16.70;99.90
21592;DHT22;10958;50.892;3.992;2023-05-02T16:06:07;16.50;99.90
21592;DHT22;10958;50.892;3.992;2023-05-02T16:08:35;16.30;99.90
21592;DHT22;10958;50.892;3.992;2023-05-02T16:11:10;16.40;99.90
21592;DHT22;10958;50.892;3.992;2023-05-02T16:13:59;16.10;99.90
21592;DHT22;10958;50.892;3.992;2023-05-02T16:16:26;15.90;99.90
21592;DHT22;10958;50.892;3.992;2023-05-02T16:18:55;15.90;99.90
21592;DHT22;10958;50.892;3.992;2023-05-02T16:21:21;15.90;99.90
21592;DHT22;10958;50.892;3.992;2023-05-02T16:23:47;16.00;99.90
21592;DHT22;10958;50.892;3.992;2023-05-02T16:26:13;16.10;99.90
21592;DHT22;10958;50.892;3.992;2023-05-02T16:28:42;16.00;99.90
21592;DHT22;10958;50.892;3.992;2023-05-02T16:31:24;15.90;99.90
21592;DHT22;10958;50.892;3.992;2023-05-02T16:34:02;15.90;99.90
21592;DHT22;10958;50.892;3.992;2023-05-02T16:36:28;16.00;99.90
21592;DHT22;10958;50.892;3.992;2023-05-02T16:38:54;15.90;99.90
21592;DHT22;10958;50.892;3.992;2023-05-02T16:41:20;15.80;99.90
21592;DHT22;10958;50.892;3.992;2023-05-02T16:43:45;15.80;99.90
21592;DHT22;10958;50.892;3.992;2023-05-02T16:46:12;15.80;99.90
21592;DHT22;10958;50.892;3.992;2023-05-02T16:48:38;15.70;99.90
21592;DHT22;10958;50.892;3.992;2023-05-02T16:51:07;15.60;99.90
21592;DHT22;10958;50.892;3.992;2023-05-02T16:53:46;15.50;99.90
21592;DHT22;10958;50.892;3.992;2023-05-02T16:57:30;15.60;99.90
21592;DHT22;10958;50.892;3.992;2023-05-02T17:06:31;15.30;99.90
21592;DHT22;10958;50.892;3.992;2023-05-02T17:09:23;15.30;99.90
21592;DHT22;10958;50.892;3.992;2023-05-02T17:11:59;15.30;99.90
21592;DHT22;10958;50.892;3.992;2023-05-02T17:14:39;15.20;99.90
21592;DHT22;10958;50.892;3.992;2023-05-02T17:19:50;15.10;99.90
21592;DHT22;10958;50.892;3.992;2023-05-02T17:22:19;15.00;99.90
21592;DHT22;10958;50.892;3.992;2023-05-02T17:24:45;14.90;99.90
21592;DHT22;10958;50.892;3.992;2023-05-02T17:27:30;14.70;99.90
21592;DHT22;10958;50.892;3.992;2023-05-02T17:30:04;14.60;99.90
21592;DHT22;10958;50.892;3.992;2023-05-02T17:32:45;14.80;99.90
21592;DHT22;10958;50.892;3.992;2023-05-02T17:35:29;14.70;99.90
21592;DHT22;10958;50.892;3.992;2023-05-02T17:38:13;14.70;99.90
21592;DHT22;10958;50.892;3.992;2023-05-02T17:40:45;14.70;99.90
21592;DHT22;10958;50.892;3.992;2023-05-02T17:43:11;14.60;99.90
21592;DHT22;10958;50.892;3.992;2023-05-02T17:45:39;14.30;99.90
21592;DHT22;10958;50.892;3.992;2023-05-02T17:48:08;14.30;99.90
21592;DHT22;10958;50.892;3.992;2023-05-02T17:50:37;14.30;99.90
21592;DHT22;10958;50.892;3.992;2023-05-02T17:53:03;14.30;99.90
21592;DHT22;10958;50.892;3.992;2023-05-02T17:55:37;14.20;99.90
21592;DHT22;10958;50.892;3.992;2023-05-02T17:58:06;14.20;99.90
21592;DHT22;10958;50.892;3.992;2023-05-02T18:00:32;14.10;99.90
21592;DHT22;10958;50.892;3.992;2023-05-02T18:03:00;13.90;99.90
21592;DHT22;10958;50.892;3.992;2023-05-02T18:05:26;13.90;99.90
21592;DHT22;10958;50.892;3.992;2023-05-02T18:07:55;13.80;99.90
21592;DHT22;10958;50.892;3.992;2023-05-02T18:10:23;13.80;99.90
21592;DHT22;10958;50.892;3.992;2023-05-02T18:12:49;13.70;99.90
21592;DHT22;10958;50.892;3.992;2023-05-02T18:15:15;13.70;99.90
21592;DHT22;10958;50.892;3.992;2023-05-02T18:17:41;13.50;99.90
21592;DHT22;10958;50.892;3.992;2023-05-02T18:20:07;13.40;99.90
21592;DHT22;10958;50.892;3.992;2023-05-02T18:22:34;13.30;99.90
21592;DHT22;10958;50.892;3.992;2023-05-02T18:25:00;13.30;99.90
21592;DHT22;10958;50.892;3.992;2023-05-02T18:27:26;13.20;99.90
21592;DHT22;10958;50.892;3.992;2023-05-02T18:29:51;13.20;99.90
21592;DHT22;10958;50.892;3.992;2023-05-02T18:45:05;12.60;99.90
21592;DHT22;10958;50.892;3.992;2023-05-02T18:47:34;12.40;99.90
21592;DHT22;10958;50.892;3.992;2023-05-02T18:50:01;12.40;99.90
21592;DHT22;10958;50.892;3.992;2023-05-02T18:52:51;12.30;99.90
21592;DHT22;10958;50.892;3.992;2023-05-02T18:55:46;12.20;99.90
21592;DHT22;10958;50.892;3.992;2023-05-02T18:58:22;12.10;99.90
21592;DHT22;10958;50.892;3.992;2023-05-02T19:00:49;12.00;99.90
21592;DHT22;10958;50.892;3.992;2023-05-02T19:03:15;11.90;99.90
21592;DHT22;10958;50.892;3.992;2023-05-02T19:05:41;11.90;99.90
21592;DHT22;10958;50.892;3.992;2023-05-02T19:08:08;11.90;99.90
21592;DHT22;10958;50.892;3.992;2023-05-02T19:10:34;11.80;99.90
21592;DHT22;10958;50.892;3.992;2023-05-02T19:13:01;11.70;99.90
21592;DHT22;10958;50.892;3.992;2023-05-02T19:15:26;11.60;99.90
21592;DHT22;10958;50.892;3.992;2023-05-02T19:17:55;11.70;99.90
21592;DHT22;10958;50.892;3.992;2023-05-02T19:20:21;11.50;99.90
21592;DHT22;10958;50.892;3.992;2023-05-02T19:22:50;11.40;99.90
21592;DHT22;10958;50.892;3.992;2023-05-02T19:25:15;11.40;99.90
21592;DHT22;10958;50.892;3.992;2023-05-02T19:27:42;11.40;99.90
21592;DHT22;10958;50.892;3.992;2023-05-02T19:40:09;11.10;99.90
21592;DHT22;10958;50.892;3.992;2023-05-02T19:43:03;11.00;99.90
21592;DHT22;10958;50.892;3.992;2023-05-02T19:46:01;10.90;99.90
21592;DHT22;10958;50.892;3.992;2023-05-02T19:48:36;10.90;99.90
21592;DHT22;10958;50.892;3.992;2023-05-02T19:51:23;10.80;99.90
21592;DHT22;10958;50.892;3.992;2023-05-02T19:54:13;10.60;99.90
21592;DHT22;10958;50.892;3.992;2023-05-02T19:57:05;10.60;99.90
21592;DHT22;10958;50.892;3.992;2023-05-02T19:59:58;10.60;99.90
21592;DHT22;10958;50.892;3.992;2023-05-02T20:21:42;10.40;99.90
21592;DHT22;10958;50.892;3.992;2023-05-02T20:24:26;10.40;99.90
21592;DHT22;10958;50.892;3.992;2023-05-02T20:27:06;10.40;99.90
21592;DHT22;10958;50.892;3.992;2023-05-02T20:29:44;10.40;99.90
21592;DHT22;10958;50.892;3.992;2023-05-02T20:32:10;10.20;99.90
21592;DHT22;10958;50.892;3.992;2023-05-02T20:34:36;10.20;99.90
21592;DHT22;10958;50.892;3.992;2023-05-02T20:37:13;10.00;99.90
21592;DHT22;10958;50.892;3.992;2023-05-02T20:39:38;10.00;99.90
21592;DHT22;10958;50.892;3.992;2023-05-02T20:42:07;10.00;99.90
21592;DHT22;10958;50.892;3.992;2023-05-02T20:44:33;9.90;99.90
21592;DHT22;10958;50.892;3.992;2023-05-02T20:47:06;9.90;99.90
21592;DHT22;10958;50.892;3.992;2023-05-02T20:49:35;9.80;99.90
21592;DHT22;10958;50.892;3.992;2023-05-02T20:52:04;9.90;99.90
21592;DHT22;10958;50.892;3.992;2023-05-02T20:54:30;9.90;99.90
21592;DHT22;10958;50.892;3.992;2023-05-02T20:56:56;9.90;99.90